sensor_id;sensor_type;location;lat;lon;timestamp;temperature;humidity
38488;DHT22;57384;51.986;4.458;2023-09-07T00:00:38;22.30;60.10
38488;DHT22;57384;51.986;4.458;2023-09-07T00:03:05;22.30;60.30
38488;DHT22;57384;51.986;4.458;2023-09-07T00:05:31;22.30;60.50
38488;DHT22;57384;51.986;4.458;2023-09-07T00:07:58;22.20;60.30
38488;DHT22;57384;51.986;4.458;2023-09-07T00:10:26;22.20;60.30
38488;DHT22;57384;51.986;4.458;2023-09-07T00:12:52;22.20;60.20
38488;DHT22;57384;51.986;4.458;2023-09-07T00:15:20;22.10;60.00
38488;DHT22;57384;51.986;4.458;2023-09-07T00:17:47;22.10;59.80
38488;DHT22;57384;51.986;4.458;2023-09-07T00:20:13;22.10;59.70
38488;DHT22;57384;51.986;4.458;2023-09-07T00:22:40;22.10;60.10
38488;DHT22;57384;51.986;4.458;2023-09-07T00:25:07;22.10;60.10
38488;DHT22;57384;51.986;4.458;2023-09-07T00:27:34;22.00;60.00
38488;DHT22;57384;51.986;4.458;2023-09-07T00:30:01;22.00;59.90
38488;DHT22;57384;51.986;4.458;2023-09-07T00:32:28;22.00;60.20
38488;DHT22;57384;51.986;4.458;2023-09-07T00:34:55;21.90;60.60
38488;DHT22;57384;51.986;4.458;2023-09-07T00:37:21;21.90;60.60
38488;DHT22;57384;51.986;4.458;2023-09-07T00:39:48;21.90;60.90
38488;DHT22;57384;51.986;4.458;2023-09-07T00:42:14;21.80;60.50
38488;DHT22;57384;51.986;4.458;2023-09-07T00:44:41;21.80;60.90
38488;DHT22;57384;51.986;4.458;2023-09-07T00:47:07;21.80;61.00
38488;DHT22;57384;51.986;4.458;2023-09-07T00:49:34;21.70;61.30
38488;DHT22;57384;51.986;4.458;2023-09-07T00:52:00;21.70;61.40
38488;DHT22;57384;51.986;4.458;2023-09-07T00:54:28;21.70;61.70
38488;DHT22;57384;51.986;4.458;2023-09-07T00:56:55;21.70;62.20
38488;DHT22;57384;51.986;4.458;2023-09-07T00:59:22;21.70;62.50
38488;DHT22;57384;51.986;4.458;2023-09-07T01:01:49;21.70;62.70
38488;DHT22;57384;51.986;4.458;2023-09-07T01:04:15;21.60;62.60
38488;DHT22;57384;51.986;4.458;2023-09-07T01:06:56;21.60;62.90
38488;DHT22;57384;51.986;4.458;2023-09-07T01:09:26;21.60;63.40
38488;DHT22;57384;51.986;4.458;2023-09-07T01:11:55;21.60;62.90
38488;DHT22;57384;51.986;4.458;2023-09-07T01:14:21;21.60;63.10
38488;DHT22;57384;51.986;4.458;2023-09-07T01:16:49;21.50;63.40
38488;DHT22;57384;51.986;4.458;2023-09-07T01:19:16;21.50;63.60
38488;DHT22;57384;51.986;4.458;2023-09-07T01:21:43;21.50;63.40
38488;DHT22;57384;51.986;4.458;2023-09-07T01:24:11;21.50;63.70
38488;DHT22;57384;51.986;4.458;2023-09-07T01:26:38;21.40;63.50
38488;DHT22;57384;51.986;4.458;2023-09-07T01:29:08;21.40;63.30
38488;DHT22;57384;51.986;4.458;2023-09-07T01:31:38;21.40;63.60
38488;DHT22;57384;51.986;4.458;2023-09-07T01:34:06;21.40;63.50
38488;DHT22;57384;51.986;4.458;2023-09-07T01:36:32;21.40;63.40
38488;DHT22;57384;51.986;4.458;2023-09-07T01:39:02;21.40;63.60
38488;DHT22;57384;51.986;4.458;2023-09-07T01:41:29;21.30;63.20
38488;DHT22;57384;51.986;4.458;2023-09-07T01:43:55;21.30;62.80
38488;DHT22;57384;51.986;4.458;2023-09-07T01:46:22;21.30;62.50
38488;DHT22;57384;51.986;4.458;2023-09-07T01:48:48;21.30;62.20
38488;DHT22;57384;51.986;4.458;2023-09-07T01:51:15;21.20;62.60
38488;DHT22;57384;51.986;4.458;2023-09-07T01:53:41;21.20;62.70
38488;DHT22;57384;51.986;4.458;2023-09-07T01:56:09;21.10;63.00
38488;DHT22;57384;51.986;4.458;2023-09-07T01:58:35;21.10;63.30
38488;DHT22;57384;51.986;4.458;2023-09-07T02:01:02;21.10;63.20
38488;DHT22;57384;51.986;4.458;2023-09-07T02:03:29;21.10;63.00
38488;DHT22;57384;51.986;4.458;2023-09-07T02:05:55;21.00;62.80
38488;DHT22;57384;51.986;4.458;2023-09-07T02:08:22;21.00;62.80
38488;DHT22;57384;51.986;4.458;2023-09-07T02:10:48;21.00;62.70
38488;DHT22;57384;51.986;4.458;2023-09-07T02:13:15;21.00;62.60
38488;DHT22;57384;51.986;4.458;2023-09-07T02:15:41;20.90;63.20
38488;DHT22;57384;51.986;4.458;2023-09-07T02:18:08;20.90;63.50
38488;DHT22;57384;51.986;4.458;2023-09-07T02:20:34;20.90;63.60
38488;DHT22;57384;51.986;4.458;2023-09-07T02:23:01;20.80;63.50
38488;DHT22;57384;51.986;4.458;2023-09-07T02:25:27;20.80;64.00
38488;DHT22;57384;51.986;4.458;2023-09-07T02:27:54;20.80;64.50
38488;DHT22;57384;51.986;4.458;2023-09-07T02:30:20;20.80;64.50
38488;DHT22;57384;51.986;4.458;2023-09-07T02:32:47;20.70;64.80
38488;DHT22;57384;51.986;4.458;2023-09-07T02:35:13;20.70;65.50
38488;DHT22;57384;51.986;4.458;2023-09-07T02:37:40;20.70;65.20
38488;DHT22;57384;51.986;4.458;2023-09-07T02:40:07;20.70;65.40
38488;DHT22;57384;51.986;4.458;2023-09-07T02:42:34;20.70;65.50
38488;DHT22;57384;51.986;4.458;2023-09-07T02:45:00;20.70;66.20
38488;DHT22;57384;51.986;4.458;2023-09-07T02:47:27;20.60;65.70
38488;DHT22;57384;51.986;4.458;2023-09-07T02:49:53;20.60;65.90
38488;DHT22;57384;51.986;4.458;2023-09-07T02:52:20;20.60;66.10
38488;DHT22;57384;51.986;4.458;2023-09-07T02:54:47;20.60;66.40
38488;DHT22;57384;51.986;4.458;2023-09-07T02:57:13;20.60;66.50
38488;DHT22;57384;51.986;4.458;2023-09-07T02:59:40;20.60;66.80
38488;DHT22;57384;51.986;4.458;2023-09-07T03:02:06;20.60;66.90
38488;DHT22;57384;51.986;4.458;2023-09-07T03:04:33;20.60;67.10
38488;DHT22;57384;51.986;4.458;2023-09-07T03:07:01;20.60;67.10
38488;DHT22;57384;51.986;4.458;2023-09-07T03:09:27;20.50;67.30
38488;DHT22;57384;51.986;4.458;2023-09-07T03:11:54;20.50;67.30
38488;DHT22;57384;51.986;4.458;2023-09-07T03:14:20;20.50;67.30
38488;DHT22;57384;51.986;4.458;2023-09-07T03:16:47;20.50;67.20
38488;DHT22;57384;51.986;4.458;2023-09-07T03:19:13;20.50;67.10
38488;DHT22;57384;51.986;4.458;2023-09-07T03:21:40;20.50;67.30
38488;DHT22;57384;51.986;4.458;2023-09-07T03:24:07;20.50;67.50
38488;DHT22;57384;51.986;4.458;2023-09-07T03:26:33;20.40;67.60
38488;DHT22;57384;51.986;4.458;2023-09-07T03:29:00;20.40;67.60
38488;DHT22;57384;51.986;4.458;2023-09-07T03:31:26;20.40;67.50
38488;DHT22;57384;51.986;4.458;2023-09-07T03:33:53;20.40;67.60
38488;DHT22;57384;51.986;4.458;2023-09-07T03:36:19;20.40;67.80
38488;DHT22;57384;51.986;4.458;2023-09-07T03:38:46;20.30;67.90
38488;DHT22;57384;51.986;4.458;2023-09-07T03:41:12;20.40;68.10
38488;DHT22;57384;51.986;4.458;2023-09-07T03:43:39;20.30;68.80
38488;DHT22;57384;51.986;4.458;2023-09-07T03:46:05;20.30;68.20
38488;DHT22;57384;51.986;4.458;2023-09-07T03:48:32;20.30;68.10
38488;DHT22;57384;51.986;4.458;2023-09-07T03:50:58;20.30;68.00
38488;DHT22;57384;51.986;4.458;2023-09-07T03:53:25;20.30;68.00
38488;DHT22;57384;51.986;4.458;2023-09-07T03:55:51;20.30;68.00
38488;DHT22;57384;51.986;4.458;2023-09-07T03:58:18;20.20;67.60
38488;DHT22;57384;51.986;4.458;2023-09-07T04:00:44;20.20;67.60
38488;DHT22;57384;51.986;4.458;2023-09-07T04:03:12;20.20;67.50
38488;DHT22;57384;51.986;4.458;2023-09-07T04:05:38;20.20;67.00
38488;DHT22;57384;51.986;4.458;2023-09-07T04:08:05;20.10;66.80
38488;DHT22;57384;51.986;4.458;2023-09-07T04:10:32;20.10;66.70
38488;DHT22;57384;51.986;4.458;2023-09-07T04:12:59;20.10;66.30
38488;DHT22;57384;51.986;4.458;2023-09-07T04:15:25;20.10;66.00
38488;DHT22;57384;51.986;4.458;2023-09-07T04:17:52;20.10;65.80
38488;DHT22;57384;51.986;4.458;2023-09-07T04:20:18;20.00;65.70
38488;DHT22;57384;51.986;4.458;2023-09-07T04:22:45;20.00;65.50
38488;DHT22;57384;51.986;4.458;2023-09-07T04:25:11;19.90;65.50
38488;DHT22;57384;51.986;4.458;2023-09-07T04:27:38;19.90;65.70
38488;DHT22;57384;51.986;4.458;2023-09-07T04:30:05;19.90;65.40
38488;DHT22;57384;51.986;4.458;2023-09-07T04:32:32;19.90;65.40
38488;DHT22;57384;51.986;4.458;2023-09-07T04:34:58;19.90;65.50
38488;DHT22;57384;51.986;4.458;2023-09-07T04:37:25;19.80;65.60
38488;DHT22;57384;51.986;4.458;2023-09-07T04:39:52;19.90;65.50
38488;DHT22;57384;51.986;4.458;2023-09-07T04:42:19;19.80;65.40
38488;DHT22;57384;51.986;4.458;2023-09-07T04:44:46;19.80;65.00
38488;DHT22;57384;51.986;4.458;2023-09-07T04:47:13;19.70;64.70
38488;DHT22;57384;51.986;4.458;2023-09-07T04:49:40;19.70;64.40
38488;DHT22;57384;51.986;4.458;2023-09-07T04:52:06;19.60;64.60
38488;DHT22;57384;51.986;4.458;2023-09-07T04:54:33;19.60;64.60
38488;DHT22;57384;51.986;4.458;2023-09-07T04:56:59;19.60;64.70
38488;DHT22;57384;51.986;4.458;2023-09-07T04:59:26;19.50;65.00
38488;DHT22;57384;51.986;4.458;2023-09-07T05:01:52;19.50;65.10
38488;DHT22;57384;51.986;4.458;2023-09-07T05:04:19;19.50;65.20
38488;DHT22;57384;51.986;4.458;2023-09-07T05:06:45;19.50;65.20
38488;DHT22;57384;51.986;4.458;2023-09-07T05:09:12;19.50;65.60
38488;DHT22;57384;51.986;4.458;2023-09-07T05:11:38;19.40;65.80
38488;DHT22;57384;51.986;4.458;2023-09-07T05:14:05;19.40;65.60
38488;DHT22;57384;51.986;4.458;2023-09-07T05:16:31;19.40;65.80
38488;DHT22;57384;51.986;4.458;2023-09-07T05:18:58;19.40;66.00
38488;DHT22;57384;51.986;4.458;2023-09-07T05:21:25;19.40;65.90
38488;DHT22;57384;51.986;4.458;2023-09-07T05:23:51;19.40;66.40
38488;DHT22;57384;51.986;4.458;2023-09-07T05:26:22;19.40;66.20
38488;DHT22;57384;51.986;4.458;2023-09-07T05:28:51;19.30;66.60
38488;DHT22;57384;51.986;4.458;2023-09-07T05:31:18;19.30;67.10
38488;DHT22;57384;51.986;4.458;2023-09-07T05:33:44;19.30;67.00
38488;DHT22;57384;51.986;4.458;2023-09-07T05:36:11;19.30;67.00
38488;DHT22;57384;51.986;4.458;2023-09-07T05:38:37;19.30;67.10
38488;DHT22;57384;51.986;4.458;2023-09-07T05:41:04;19.30;67.30
38488;DHT22;57384;51.986;4.458;2023-09-07T05:43:30;19.20;67.60
38488;DHT22;57384;51.986;4.458;2023-09-07T05:45:57;19.30;67.50
38488;DHT22;57384;51.986;4.458;2023-09-07T05:48:23;19.20;67.40
38488;DHT22;57384;51.986;4.458;2023-09-07T05:50:50;19.20;67.20
38488;DHT22;57384;51.986;4.458;2023-09-07T05:53:18;19.20;67.50
38488;DHT22;57384;51.986;4.458;2023-09-07T05:55:45;19.20;68.10
38488;DHT22;57384;51.986;4.458;2023-09-07T05:58:12;19.20;68.50
38488;DHT22;57384;51.986;4.458;2023-09-07T06:00:39;19.20;68.90
38488;DHT22;57384;51.986;4.458;2023-09-07T06:03:07;19.20;69.20
38488;DHT22;57384;51.986;4.458;2023-09-07T06:05:34;19.30;69.50
38488;DHT22;57384;51.986;4.458;2023-09-07T06:08:01;19.20;69.70
38488;DHT22;57384;51.986;4.458;2023-09-07T06:10:29;19.30;69.90
38488;DHT22;57384;51.986;4.458;2023-09-07T06:12:56;19.30;70.00
38488;DHT22;57384;51.986;4.458;2023-09-07T06:15:22;19.30;70.10
38488;DHT22;57384;51.986;4.458;2023-09-07T06:17:49;19.30;70.30
38488;DHT22;57384;51.986;4.458;2023-09-07T06:20:16;19.30;70.40
38488;DHT22;57384;51.986;4.458;2023-09-07T06:22:42;19.40;70.60
38488;DHT22;57384;51.986;4.458;2023-09-07T06:25:09;19.40;70.70
38488;DHT22;57384;51.986;4.458;2023-09-07T06:27:35;19.40;70.80
38488;DHT22;57384;51.986;4.458;2023-09-07T06:30:02;19.40;70.90
38488;DHT22;57384;51.986;4.458;2023-09-07T06:32:29;19.40;70.90
38488;DHT22;57384;51.986;4.458;2023-09-07T06:34:55;19.50;70.90
38488;DHT22;57384;51.986;4.458;2023-09-07T06:37:22;19.50;71.00
38488;DHT22;57384;51.986;4.458;2023-09-07T06:39:48;19.50;71.10
38488;DHT22;57384;51.986;4.458;2023-09-07T06:42:15;19.60;71.30
38488;DHT22;57384;51.986;4.458;2023-09-07T06:44:41;19.60;71.40
38488;DHT22;57384;51.986;4.458;2023-09-07T06:47:08;19.70;71.40
38488;DHT22;57384;51.986;4.458;2023-09-07T06:49:35;19.70;71.30
38488;DHT22;57384;51.986;4.458;2023-09-07T06:52:03;19.80;71.30
38488;DHT22;57384;51.986;4.458;2023-09-07T06:54:30;19.80;71.40
38488;DHT22;57384;51.986;4.458;2023-09-07T06:56:56;19.80;71.30
38488;DHT22;57384;51.986;4.458;2023-09-07T06:59:23;19.90;71.40
38488;DHT22;57384;51.986;4.458;2023-09-07T07:01:50;20.00;71.40
38488;DHT22;57384;51.986;4.458;2023-09-07T07:04:16;20.00;71.40
38488;DHT22;57384;51.986;4.458;2023-09-07T07:06:45;20.10;71.40
38488;DHT22;57384;51.986;4.458;2023-09-07T07:09:12;20.20;71.50
38488;DHT22;57384;51.986;4.458;2023-09-07T07:11:38;20.30;71.40
38488;DHT22;57384;51.986;4.458;2023-09-07T07:14:05;20.30;71.30
38488;DHT22;57384;51.986;4.458;2023-09-07T07:16:32;20.40;71.20
38488;DHT22;57384;51.986;4.458;2023-09-07T07:18:58;20.50;71.20
38488;DHT22;57384;51.986;4.458;2023-09-07T07:21:25;20.60;71.10
38488;DHT22;57384;51.986;4.458;2023-09-07T07:23:51;20.70;71.00
38488;DHT22;57384;51.986;4.458;2023-09-07T07:26:18;20.80;70.90
38488;DHT22;57384;51.986;4.458;2023-09-07T07:28:44;20.90;70.60
38488;DHT22;57384;51.986;4.458;2023-09-07T07:31:11;21.00;70.20
38488;DHT22;57384;51.986;4.458;2023-09-07T07:33:38;21.20;70.10
38488;DHT22;57384;51.986;4.458;2023-09-07T07:36:05;21.30;69.90
38488;DHT22;57384;51.986;4.458;2023-09-07T07:38:31;21.40;69.60
38488;DHT22;57384;51.986;4.458;2023-09-07T07:40:58;21.60;69.40
38488;DHT22;57384;51.986;4.458;2023-09-07T07:43:24;21.70;69.10
38488;DHT22;57384;51.986;4.458;2023-09-07T07:45:53;21.80;68.80
38488;DHT22;57384;51.986;4.458;2023-09-07T07:48:21;22.00;68.50
38488;DHT22;57384;51.986;4.458;2023-09-07T07:50:47;22.10;68.40
38488;DHT22;57384;51.986;4.458;2023-09-07T07:53:14;22.30;67.90
38488;DHT22;57384;51.986;4.458;2023-09-07T07:55:40;22.50;67.60
38488;DHT22;57384;51.986;4.458;2023-09-07T07:58:08;22.70;67.30
38488;DHT22;57384;51.986;4.458;2023-09-07T08:00:35;22.80;67.00
38488;DHT22;57384;51.986;4.458;2023-09-07T08:03:03;23.00;66.60
38488;DHT22;57384;51.986;4.458;2023-09-07T08:05:29;23.20;66.20
38488;DHT22;57384;51.986;4.458;2023-09-07T08:07:57;23.30;65.80
38488;DHT22;57384;51.986;4.458;2023-09-07T08:10:23;23.50;65.30
38488;DHT22;57384;51.986;4.458;2023-09-07T08:12:57;23.70;64.90
38488;DHT22;57384;51.986;4.458;2023-09-07T08:15:24;23.80;64.60
38488;DHT22;57384;51.986;4.458;2023-09-07T08:17:51;24.00;64.10
38488;DHT22;57384;51.986;4.458;2023-09-07T08:20:17;24.20;63.70
38488;DHT22;57384;51.986;4.458;2023-09-07T08:22:44;24.40;63.50
38488;DHT22;57384;51.986;4.458;2023-09-07T08:25:11;24.60;63.00
38488;DHT22;57384;51.986;4.458;2023-09-07T08:27:38;24.70;62.70
38488;DHT22;57384;51.986;4.458;2023-09-07T08:30:05;24.90;62.10
38488;DHT22;57384;51.986;4.458;2023-09-07T08:32:31;25.10;61.80
38488;DHT22;57384;51.986;4.458;2023-09-07T08:34:58;25.30;61.80
38488;DHT22;57384;51.986;4.458;2023-09-07T08:37:25;25.50;61.70
38488;DHT22;57384;51.986;4.458;2023-09-07T08:39:51;25.60;61.20
38488;DHT22;57384;51.986;4.458;2023-09-07T08:42:20;25.70;60.50
38488;DHT22;57384;51.986;4.458;2023-09-07T08:44:49;25.90;60.20
38488;DHT22;57384;51.986;4.458;2023-09-07T08:47:18;26.10;59.80
38488;DHT22;57384;51.986;4.458;2023-09-07T08:49:46;26.30;59.40
38488;DHT22;57384;51.986;4.458;2023-09-07T08:52:14;26.50;58.90
38488;DHT22;57384;51.986;4.458;2023-09-07T08:54:43;26.70;59.10
38488;DHT22;57384;51.986;4.458;2023-09-07T08:57:10;26.90;58.30
38488;DHT22;57384;51.986;4.458;2023-09-07T08:59:37;27.10;58.20
38488;DHT22;57384;51.986;4.458;2023-09-07T09:02:08;27.30;57.60
38488;DHT22;57384;51.986;4.458;2023-09-07T09:04:35;27.40;57.40
38488;DHT22;57384;51.986;4.458;2023-09-07T09:07:02;27.60;57.20
38488;DHT22;57384;51.986;4.458;2023-09-07T09:09:29;27.80;56.80
38488;DHT22;57384;51.986;4.458;2023-09-07T09:12:10;28.00;57.20
38488;DHT22;57384;51.986;4.458;2023-09-07T09:14:39;28.20;56.80
38488;DHT22;57384;51.986;4.458;2023-09-07T09:17:05;28.40;56.30
38488;DHT22;57384;51.986;4.458;2023-09-07T09:19:33;28.50;56.00
38488;DHT22;57384;51.986;4.458;2023-09-07T09:22:01;28.70;55.50
38488;DHT22;57384;51.986;4.458;2023-09-07T09:24:31;28.90;55.20
38488;DHT22;57384;51.986;4.458;2023-09-07T09:26:57;29.00;55.00
38488;DHT22;57384;51.986;4.458;2023-09-07T09:29:24;29.20;54.50
38488;DHT22;57384;51.986;4.458;2023-09-07T09:31:51;29.40;54.20
38488;DHT22;57384;51.986;4.458;2023-09-07T09:34:18;29.50;54.30
38488;DHT22;57384;51.986;4.458;2023-09-07T09:36:45;29.70;53.90
38488;DHT22;57384;51.986;4.458;2023-09-07T09:39:24;29.90;54.50
38488;DHT22;57384;51.986;4.458;2023-09-07T09:41:52;30.00;53.30
38488;DHT22;57384;51.986;4.458;2023-09-07T09:44:23;30.20;53.20
38488;DHT22;57384;51.986;4.458;2023-09-07T09:46:53;30.40;53.20
38488;DHT22;57384;51.986;4.458;2023-09-07T09:49:22;30.60;53.10
38488;DHT22;57384;51.986;4.458;2023-09-07T09:51:49;30.70;52.30
38488;DHT22;57384;51.986;4.458;2023-09-07T09:54:18;30.90;51.90
38488;DHT22;57384;51.986;4.458;2023-09-07T09:56:45;31.00;51.60
38488;DHT22;57384;51.986;4.458;2023-09-07T09:59:13;31.10;51.30
38488;DHT22;57384;51.986;4.458;2023-09-07T10:01:45;31.20;50.70
38488;DHT22;57384;51.986;4.458;2023-09-07T10:04:14;31.40;50.80
38488;DHT22;57384;51.986;4.458;2023-09-07T10:06:53;31.50;50.20
38488;DHT22;57384;51.986;4.458;2023-09-07T10:09:20;31.70;50.40
38488;DHT22;57384;51.986;4.458;2023-09-07T10:11:52;31.80;49.70
38488;DHT22;57384;51.986;4.458;2023-09-07T10:14:19;31.90;49.80
38488;DHT22;57384;51.986;4.458;2023-09-07T10:16:47;32.10;49.90
38488;DHT22;57384;51.986;4.458;2023-09-07T10:19:18;32.20;50.40
38488;DHT22;57384;51.986;4.458;2023-09-07T10:21:45;32.30;49.10
38488;DHT22;57384;51.986;4.458;2023-09-07T10:24:12;32.30;48.80
38488;DHT22;57384;51.986;4.458;2023-09-07T10:27:05;32.50;48.10
38488;DHT22;57384;51.986;4.458;2023-09-07T10:29:45;32.50;47.50
38488;DHT22;57384;51.986;4.458;2023-09-07T10:32:13;32.60;47.40
38488;DHT22;57384;51.986;4.458;2023-09-07T10:34:39;32.70;46.90
38488;DHT22;57384;51.986;4.458;2023-09-07T10:37:06;32.80;47.00
38488;DHT22;57384;51.986;4.458;2023-09-07T10:39:33;32.90;47.00
38488;DHT22;57384;51.986;4.458;2023-09-07T10:41:59;33.00;46.30
38488;DHT22;57384;51.986;4.458;2023-09-07T10:44:27;33.10;47.20
38488;DHT22;57384;51.986;4.458;2023-09-07T10:46:54;33.10;45.90
38488;DHT22;57384;51.986;4.458;2023-09-07T10:49:21;33.20;45.50
38488;DHT22;57384;51.986;4.458;2023-09-07T10:51:48;33.30;45.20
38488;DHT22;57384;51.986;4.458;2023-09-07T10:54:22;33.30;44.80
38488;DHT22;57384;51.986;4.458;2023-09-07T10:56:49;33.40;45.50
38488;DHT22;57384;51.986;4.458;2023-09-07T10:59:17;33.50;45.50
38488;DHT22;57384;51.986;4.458;2023-09-07T11:01:44;33.60;45.20
38488;DHT22;57384;51.986;4.458;2023-09-07T11:04:16;33.70;46.00
38488;DHT22;57384;51.986;4.458;2023-09-07T11:06:43;33.80;45.80
38488;DHT22;57384;51.986;4.458;2023-09-07T11:09:09;34.00;45.40
38488;DHT22;57384;51.986;4.458;2023-09-07T11:11:36;34.10;46.00
38488;DHT22;57384;51.986;4.458;2023-09-07T11:14:06;34.30;44.80
38488;DHT22;57384;51.986;4.458;2023-09-07T11:16:35;34.40;45.70
38488;DHT22;57384;51.986;4.458;2023-09-07T11:19:06;34.60;44.90
38488;DHT22;57384;51.986;4.458;2023-09-07T11:21:34;34.70;44.90
38488;DHT22;57384;51.986;4.458;2023-09-07T11:24:02;34.90;43.80
38488;DHT22;57384;51.986;4.458;2023-09-07T11:26:43;34.90;43.30
38488;DHT22;57384;51.986;4.458;2023-09-07T11:29:09;35.00;43.00
38488;DHT22;57384;51.986;4.458;2023-09-07T11:31:39;35.20;42.90
38488;DHT22;57384;51.986;4.458;2023-09-07T11:34:10;35.30;42.40
38488;DHT22;57384;51.986;4.458;2023-09-07T11:36:40;35.40;42.00
38488;DHT22;57384;51.986;4.458;2023-09-07T11:39:07;35.50;41.60
38488;DHT22;57384;51.986;4.458;2023-09-07T11:41:34;35.60;41.70
38488;DHT22;57384;51.986;4.458;2023-09-07T11:44:00;35.80;41.20
38488;DHT22;57384;51.986;4.458;2023-09-07T11:46:27;35.90;41.10
38488;DHT22;57384;51.986;4.458;2023-09-07T11:48:53;36.00;41.40
38488;DHT22;57384;51.986;4.458;2023-09-07T11:51:20;36.20;40.70
38488;DHT22;57384;51.986;4.458;2023-09-07T11:53:47;36.30;40.50
38488;DHT22;57384;51.986;4.458;2023-09-07T11:56:13;36.50;40.90
38488;DHT22;57384;51.986;4.458;2023-09-07T11:58:40;36.60;40.20
38488;DHT22;57384;51.986;4.458;2023-09-07T12:01:06;36.80;40.20
38488;DHT22;57384;51.986;4.458;2023-09-07T12:03:33;36.90;39.70
38488;DHT22;57384;51.986;4.458;2023-09-07T12:05:59;37.10;39.60
38488;DHT22;57384;51.986;4.458;2023-09-07T12:08:26;37.20;39.70
38488;DHT22;57384;51.986;4.458;2023-09-07T12:10:53;37.40;39.30
38488;DHT22;57384;51.986;4.458;2023-09-07T12:13:19;37.40;38.90
38488;DHT22;57384;51.986;4.458;2023-09-07T12:15:46;37.60;39.30
38488;DHT22;57384;51.986;4.458;2023-09-07T12:18:12;37.70;38.40
38488;DHT22;57384;51.986;4.458;2023-09-07T12:20:39;37.90;38.50
38488;DHT22;57384;51.986;4.458;2023-09-07T12:23:05;38.00;38.30
38488;DHT22;57384;51.986;4.458;2023-09-07T12:25:33;38.10;38.00
38488;DHT22;57384;51.986;4.458;2023-09-07T12:27:59;38.30;38.70
38488;DHT22;57384;51.986;4.458;2023-09-07T12:30:26;38.40;38.00
38488;DHT22;57384;51.986;4.458;2023-09-07T12:32:52;38.60;38.00
38488;DHT22;57384;51.986;4.458;2023-09-07T12:35:19;38.70;38.20
38488;DHT22;57384;51.986;4.458;2023-09-07T12:37:46;38.80;38.10
38488;DHT22;57384;51.986;4.458;2023-09-07T12:40:13;39.00;37.50
38488;DHT22;57384;51.986;4.458;2023-09-07T12:42:43;39.20;36.90
38488;DHT22;57384;51.986;4.458;2023-09-07T12:45:13;39.30;36.00
38488;DHT22;57384;51.986;4.458;2023-09-07T12:47:40;39.40;36.10
38488;DHT22;57384;51.986;4.458;2023-09-07T12:50:07;39.50;35.80
38488;DHT22;57384;51.986;4.458;2023-09-07T12:52:34;39.60;35.40
38488;DHT22;57384;51.986;4.458;2023-09-07T12:55:02;39.70;34.90
38488;DHT22;57384;51.986;4.458;2023-09-07T12:57:30;39.80;35.30
38488;DHT22;57384;51.986;4.458;2023-09-07T12:59:56;39.90;35.70
38488;DHT22;57384;51.986;4.458;2023-09-07T13:02:23;40.00;35.60
38488;DHT22;57384;51.986;4.458;2023-09-07T13:04:49;40.20;35.90
38488;DHT22;57384;51.986;4.458;2023-09-07T13:07:16;40.30;35.50
38488;DHT22;57384;51.986;4.458;2023-09-07T13:09:43;40.50;36.40
38488;DHT22;57384;51.986;4.458;2023-09-07T13:12:09;40.60;34.50
38488;DHT22;57384;51.986;4.458;2023-09-07T13:14:39;40.60;34.50
38488;DHT22;57384;51.986;4.458;2023-09-07T13:17:05;40.70;34.10
38488;DHT22;57384;51.986;4.458;2023-09-07T13:19:32;40.70;33.30
38488;DHT22;57384;51.986;4.458;2023-09-07T13:21:59;40.80;33.50
38488;DHT22;57384;51.986;4.458;2023-09-07T13:24:25;40.80;33.30
38488;DHT22;57384;51.986;4.458;2023-09-07T13:26:52;40.90;33.50
38488;DHT22;57384;51.986;4.458;2023-09-07T13:29:18;40.90;33.10
38488;DHT22;57384;51.986;4.458;2023-09-07T13:31:45;41.10;33.20
38488;DHT22;57384;51.986;4.458;2023-09-07T13:34:11;41.10;32.80
38488;DHT22;57384;51.986;4.458;2023-09-07T13:36:38;41.10;32.50
38488;DHT22;57384;51.986;4.458;2023-09-07T13:39:05;41.00;32.50
38488;DHT22;57384;51.986;4.458;2023-09-07T13:41:31;40.90;33.10
38488;DHT22;57384;51.986;4.458;2023-09-07T13:43:58;40.80;32.90
38488;DHT22;57384;51.986;4.458;2023-09-07T13:46:24;40.70;33.60
38488;DHT22;57384;51.986;4.458;2023-09-07T13:48:51;40.60;33.90
38488;DHT22;57384;51.986;4.458;2023-09-07T13:51:17;40.40;33.00
38488;DHT22;57384;51.986;4.458;2023-09-07T13:53:44;40.20;33.10
38488;DHT22;57384;51.986;4.458;2023-09-07T13:56:10;40.00;33.40
38488;DHT22;57384;51.986;4.458;2023-09-07T13:58:37;39.80;33.10
38488;DHT22;57384;51.986;4.458;2023-09-07T14:01:04;39.60;32.90
38488;DHT22;57384;51.986;4.458;2023-09-07T14:03:30;39.40;33.10
38488;DHT22;57384;51.986;4.458;2023-09-07T14:05:57;39.20;33.00
38488;DHT22;57384;51.986;4.458;2023-09-07T14:08:23;39.10;33.40
38488;DHT22;57384;51.986;4.458;2023-09-07T14:10:50;39.00;33.40
38488;DHT22;57384;51.986;4.458;2023-09-07T14:13:20;38.90;33.30
38488;DHT22;57384;51.986;4.458;2023-09-07T14:15:46;38.90;33.30
38488;DHT22;57384;51.986;4.458;2023-09-07T14:18:13;38.90;33.30
38488;DHT22;57384;51.986;4.458;2023-09-07T14:20:40;38.90;33.40
38488;DHT22;57384;51.986;4.458;2023-09-07T14:23:06;38.90;32.90
38488;DHT22;57384;51.986;4.458;2023-09-07T14:25:33;38.90;32.70
38488;DHT22;57384;51.986;4.458;2023-09-07T14:27:59;38.80;32.60
38488;DHT22;57384;51.986;4.458;2023-09-07T14:30:26;38.60;32.70
38488;DHT22;57384;51.986;4.458;2023-09-07T14:32:52;38.50;32.70
38488;DHT22;57384;51.986;4.458;2023-09-07T14:35:19;38.40;33.00
38488;DHT22;57384;51.986;4.458;2023-09-07T14:37:48;38.20;33.00
38488;DHT22;57384;51.986;4.458;2023-09-07T14:40:15;38.10;33.30
38488;DHT22;57384;51.986;4.458;2023-09-07T14:42:42;37.90;33.40
38488;DHT22;57384;51.986;4.458;2023-09-07T14:45:08;37.70;33.60
38488;DHT22;57384;51.986;4.458;2023-09-07T14:47:35;37.50;33.90
38488;DHT22;57384;51.986;4.458;2023-09-07T14:50:02;37.30;34.10
38488;DHT22;57384;51.986;4.458;2023-09-07T14:52:28;37.10;34.20
38488;DHT22;57384;51.986;4.458;2023-09-07T14:54:56;36.90;34.50
38488;DHT22;57384;51.986;4.458;2023-09-07T14:57:23;36.70;34.60
38488;DHT22;57384;51.986;4.458;2023-09-07T14:59:49;36.60;34.90
38488;DHT22;57384;51.986;4.458;2023-09-07T15:02:16;36.50;35.00
38488;DHT22;57384;51.986;4.458;2023-09-07T15:04:42;36.20;35.80
38488;DHT22;57384;51.986;4.458;2023-09-07T15:07:09;36.10;35.20
38488;DHT22;57384;51.986;4.458;2023-09-07T15:09:35;35.90;35.20
38488;DHT22;57384;51.986;4.458;2023-09-07T15:12:09;35.80;35.40
38488;DHT22;57384;51.986;4.458;2023-09-07T15:14:36;35.60;35.60
38488;DHT22;57384;51.986;4.458;2023-09-07T15:17:03;35.40;35.80
38488;DHT22;57384;51.986;4.458;2023-09-07T15:19:30;35.30;36.00
38488;DHT22;57384;51.986;4.458;2023-09-07T15:21:56;35.20;36.20
38488;DHT22;57384;51.986;4.458;2023-09-07T15:24:23;35.10;36.40
38488;DHT22;57384;51.986;4.458;2023-09-07T15:26:49;34.90;36.50
38488;DHT22;57384;51.986;4.458;2023-09-07T15:29:16;34.70;36.60